Time;durP1;ratioP1;P1;durP2;ratioP2;P2;SDS_P1;SDS_P2;PMS_P1;PMS_P2;Temp;Humidity;BMP_temperature;BMP_pressure;BME280_temperature;BME280_humidity;BME280_pressure;Samples;Min_cycle;Max_cycle;Signal;HPM_P1;HPM_P2
2022/03/21 00:01:33;;;;;;;19.03;14.80;;;8.50;56.20;;;;;;6187445;23;20405;-82
2022/03/21 00:04:00;;;;;;;16.90;14.90;;;8.50;56.30;;;;;;6187660;23;20401;-80
2022/03/21 00:06:26;;;;;;;14.77;13.27;;;8.50;56.60;;;;;;6186970;23;20426;-81
2022/03/21 00:08:53;;;;;;;17.23;15.50;;;8.50;56.50;;;;;;6186967;23;20441;-81
2022/03/21 00:11:20;;;;;;;16.67;14.87;;;8.50;56.50;;;;;;6196916;23;20406;-81
2022/03/21 00:13:49;;;;;;;17.30;15.47;;;8.60;56.40;;;;;;6192375;23;20453;-82
2022/03/21 00:16:16;;;;;;;17.77;15.10;;;8.50;56.50;;;;;;6187895;23;20422;-80
2022/03/21 00:18:43;;;;;;;19.73;14.93;;;8.60;56.60;;;;;;6187437;23;20395;-81
2022/03/21 00:21:09;;;;;;;16.13;14.20;;;8.50;56.30;;;;;;6191392;23;20485;-80
2022/03/21 00:23:36;;;;;;;16.83;14.30;;;8.50;56.50;;;;;;6188020;23;20410;-80
2022/03/21 00:26:03;;;;;;;19.33;14.20;;;8.50;56.60;;;;;;6189378;23;20422;-81
2022/03/21 00:28:29;;;;;;;17.17;14.80;;;8.50;56.80;;;;;;6187147;23;20442;-81
2022/03/21 00:30:58;;;;;;;20.10;16.40;;;8.40;57.80;;;;;;6194912;23;20437;-83
2022/03/21 00:33:25;;;;;;;21.60;15.60;;;8.30;58.30;;;;;;6187256;23;20406;-82
2022/03/21 00:35:52;;;;;;;21.57;15.50;;;8.30;59.30;;;;;;6186961;23;20405;-83
2022/03/21 00:38:20;;;;;;;16.50;14.80;;;8.20;59.30;;;;;;6200142;23;20438;-79
2022/03/21 00:40:48;;;;;;;17.23;14.90;;;8.20;59.20;;;;;;6197470;23;20406;-82
2022/03/21 00:43:16;;;;;;;17.67;15.70;;;8.10;59.30;;;;;;6197152;23;20402;-82
2022/03/21 00:45:43;;;;;;;18.03;14.13;;;8.00;59.30;;;;;;6187226;23;21112;-80
2022/03/21 00:48:11;;;;;;;20.80;17.47;;;7.90;59.90;;;;;;6187501;23;20453;-83
2022/03/21 00:50:38;;;;;;;20.60;16.67;;;7.90;60.90;;;;;;6197007;23;20402;-80
2022/03/21 00:53:04;;;;;;;24.40;21.60;;;7.90;62.80;;;;;;6188224;23;20908;-83
2022/03/21 00:55:31;;;;;;;22.10;16.00;;;7.80;64.00;;;;;;6187341;23;20468;-81
2022/03/21 00:57:59;;;;;;;20.23;17.03;;;7.80;64.80;;;;;;6184801;23;20426;-83
2022/03/21 01:00:28;;;;;;;19.33;16.70;;;7.80;65.10;;;;;;6185861;23;20410;-81
2022/03/21 01:02:56;;;;;;;18.37;15.57;;;7.80;64.50;;;;;;6183665;23;20943;-82
2022/03/21 01:05:25;;;;;;;16.40;14.63;;;7.80;64.00;;;;;;6185488;23;20659;-81
2022/03/21 01:07:52;;;;;;;18.70;15.67;;;7.80;63.50;;;;;;6186490;23;20418;-82
2022/03/21 01:10:22;;;;;;;22.03;18.57;;;7.90;63.20;;;;;;6188185;23;20433;-82
2022/03/21 01:12:50;;;;;;;18.60;16.30;;;7.90;63.10;;;;;;6200581;23;20409;-81
2022/03/21 01:15:18;;;;;;;18.03;16.33;;;7.90;63.20;;;;;;6191919;23;20394;-81
2022/03/21 01:17:46;;;;;;;17.77;15.87;;;7.80;63.40;;;;;;6196835;23;20488;-81
2022/03/21 01:20:14;;;;;;;19.00;15.27;;;7.70;63.40;;;;;;6188784;23;20394;-83
2022/03/21 01:22:43;;;;;;;18.50;15.87;;;7.70;63.90;;;;;;6188540;23;20413;-83
2022/03/21 01:25:11;;;;;;;17.67;14.00;;;7.60;64.80;;;;;;6189293;23;20410;-82
2022/03/21 01:27:38;;;;;;;21.10;15.37;;;7.70;64.70;;;;;;6188278;23;20453;-82
2022/03/21 01:30:06;;;;;;;17.67;14.23;;;7.50;64.00;;;;;;6186246;23;20397;-82
2022/03/21 01:32:33;;;;;;;18.63;15.30;;;7.40;64.30;;;;;;6191860;23;20429;-81
2022/03/21 01:34:59;;;;;;;20.53;14.90;;;7.30;64.10;;;;;;6208579;23;20436;-82
2022/03/21 01:37:26;;;;;;;22.30;15.50;;;7.10;65.00;;;;;;6192970;23;20937;-81
2022/03/21 01:39:54;;;;;;;17.27;14.10;;;7.00;65.80;;;;;;6185973;23;20750;-83
2022/03/21 01:42:21;;;;;;;19.00;16.00;;;7.10;66.10;;;;;;6187708;23;20456;-81
2022/03/21 01:44:51;;;;;;;15.83;14.07;;;7.10;65.60;;;;;;6196031;23;20626;-81
2022/03/21 01:47:18;;;;;;;18.53;15.57;;;7.00;65.10;;;;;;6193754;23;20426;-83
2022/03/21 01:49:45;;;;;;;18.40;15.27;;;7.00;65.80;;;;;;6188481;23;20468;-82
2022/03/21 01:52:12;;;;;;;17.10;15.10;;;7.00;65.90;;;;;;6186041;23;20417;-83
2022/03/21 01:57:30;;;;;;;20.20;16.27;;;7.00;66.40;;;;;;6126467;23;20418;-81
2022/03/21 01:59:57;;;;;;;18.10;16.30;;;7.00;66.00;;;;;;6193178;23;20432;-82
2022/03/21 02:02:24;;;;;;;18.07;16.10;;;7.00;65.80;;;;;;6188298;23;20406;-82
2022/03/21 02:04:51;;;;;;;20.50;16.50;;;7.00;66.10;;;;;;6186791;23;20788;-82
2022/03/21 02:07:18;;;;;;;19.60;16.37;;;7.00;67.00;;;;;;6185028;23;20426;-82
2022/03/21 02:09:46;;;;;;;17.90;16.03;;;7.00;68.00;;;;;;6183511;23;20516;-82
2022/03/21 02:12:13;;;;;;;18.03;16.13;;;7.00;67.90;;;;;;6184657;23;20779;-82
2022/03/21 02:14:41;;;;;;;18.77;15.60;;;7.10;68.60;;;;;;6186272;23;20425;-82
2022/03/21 02:17:10;;;;;;;19.50;15.77;;;7.10;68.60;;;;;;6189249;23;21010;-81
2022/03/21 02:19:40;;;;;;;18.13;16.20;;;7.10;69.20;;;;;;6192744;23;20435;-82
2022/03/21 02:22:27;;;;;;;18.70;16.17;;;7.10;69.40;;;;;;6186169;23;20779;-82
2022/03/21 02:25:02;;;;;;;19.93;15.53;;;7.00;69.20;;;;;;6186195;23;20418;-82
2022/03/21 02:27:32;;;;;;;15.93;14.03;;;7.00;69.50;;;;;;6187078;23;20445;-82
2022/03/21 02:30:00;;;;;;;21.00;17.10;;;6.90;69.20;;;;;;6193682;23;20452;-83
2022/03/21 02:32:28;;;;;;;19.73;16.60;;;6.90;69.70;;;;;;6186833;23;20456;-82
2022/03/21 02:34:55;;;;;;;17.97;16.13;;;6.90;70.00;;;;;;6188872;23;20406;-83
2022/03/21 02:37:25;;;;;;;17.80;15.20;;;6.80;70.00;;;;;;6188350;23;20429;-81
2022/03/21 02:39:52;;;;;;;24.23;16.30;;;6.90;70.60;;;;;;6189739;23;20441;-81
2022/03/21 02:42:19;;;;;;;18.97;16.23;;;6.80;70.60;;;;;;6188238;23;20934;-83
2022/03/21 02:44:47;;;;;;;17.87;15.97;;;6.80;70.50;;;;;;6185023;23;20406;-81
2022/03/21 02:47:14;;;;;;;18.40;16.50;;;6.90;70.60;;;;;;6186918;23;20456;-81
2022/03/21 02:49:40;;;;;;;20.37;16.30;;;6.90;70.90;;;;;;6192694;23;20445;-82
2022/03/21 02:52:10;;;;;;;18.20;14.97;;;6.70;70.80;;;;;;6187624;23;20406;-82
2022/03/21 02:54:37;;;;;;;17.80;15.90;;;6.60;71.60;;;;;;6185460;23;20710;-83
2022/03/21 02:57:04;;;;;;;19.63;15.60;;;6.60;71.90;;;;;;6186109;23;20622;-83
2022/03/21 02:59:30;;;;;;;19.43;15.10;;;6.60;71.70;;;;;;6185582;23;20402;-82
2022/03/21 03:01:59;;;;;;;17.43;15.10;;;6.60;71.40;;;;;;6185659;23;20428;-82
2022/03/21 03:04:26;;;;;;;17.47;15.67;;;6.70;71.00;;;;;;6197476;23;20410;-81
2022/03/21 03:06:54;;;;;;;19.20;16.20;;;6.70;69.70;;;;;;6195098;23;20456;-82
2022/03/21 03:09:21;;;;;;;19.53;17.43;;;6.60;69.30;;;;;;6188233;23;20438;-82
2022/03/21 03:11:48;;;;;;;18.37;15.83;;;6.50;70.00;;;;;;6188789;23;20408;-82
2022/03/21 03:14:14;;;;;;;20.63;16.27;;;6.40;71.10;;;;;;6188689;23;20406;-81
2022/03/21 03:16:41;;;;;;;18.77;14.80;;;6.30;71.50;;;;;;6188625;23;20437;-82
2022/03/21 03:19:09;;;;;;;19.77;15.10;;;6.40;71.60;;;;;;6196379;23;20415;-82
2022/03/21 03:21:38;;;;;;;20.67;15.50;;;6.30;70.70;;;;;;6191887;23;20413;-83
2022/03/21 03:24:06;;;;;;;18.43;15.03;;;6.20;70.50;;;;;;6195437;23;20409;-79
2022/03/21 03:26:32;;;;;;;20.90;15.90;;;6.20;70.00;;;;;;6203300;23;20422;-79
2022/03/21 03:28:59;;;;;;;18.50;16.20;;;6.10;70.80;;;;;;6195744;23;20480;-83
2022/03/21 03:31:27;;;;;;;19.80;15.40;;;6.10;70.80;;;;;;6193426;23;20942;-83
2022/03/21 03:33:53;;;;;;;20.77;17.07;;;6.00;71.00;;;;;;6191436;23;20409;-83
2022/03/21 03:36:22;;;;;;;17.53;14.50;;;6.10;70.50;;;;;;6188680;23;20931;-83
2022/03/21 03:38:49;;;;;;;20.40;15.70;;;6.00;70.40;;;;;;6189145;23;20712;-82
2022/03/21 03:41:16;;;;;;;17.83;16.03;;;6.00;71.10;;;;;;6195737;23;20409;-81
2022/03/21 03:43:44;;;;;;;21.07;14.67;;;6.00;71.80;;;;;;6192973;23;20404;-82
2022/03/21 03:46:11;;;;;;;17.87;14.63;;;6.00;72.50;;;;;;6192986;23;20418;-79
2022/03/21 03:48:38;;;;;;;20.10;16.27;;;6.00;72.50;;;;;;6189877;23;20418;-82
2022/03/21 03:51:05;;;;;;;23.47;15.83;;;5.90;72.20;;;;;;6188941;23;20424;-81
2022/03/21 03:53:33;;;;;;;19.10;16.33;;;5.90;72.50;;;;;;6198997;23;20405;-79
2022/03/21 03:56:00;;;;;;;17.17;14.47;;;5.90;72.50;;;;;;6200493;23;20390;-80
2022/03/21 03:58:27;;;;;;;18.33;15.10;;;6.00;71.50;;;;;;6188682;23;20459;-83
2022/03/21 04:00:53;;;;;;;21.93;15.67;;;6.00;71.20;;;;;;6185669;23;20456;-82
2022/03/21 04:06:05;;;;;;;18.47;15.13;;;5.90;69.80;;;;;;6188113;23;20393;-82
2022/03/21 04:08:33;;;;;;;20.33;15.70;;;5.80;69.70;;;;;;6186269;23;20408;-82
2022/03/21 04:11:00;;;;;;;20.40;16.20;;;5.80;70.10;;;;;;6185235;23;20404;-82
2022/03/21 04:13:26;;;;;;;19.30;16.13;;;5.80;70.60;;;;;;6185774;23;20408;-83
2022/03/21 04:15:53;;;;;;;23.70;17.67;;;5.80;71.20;;;;;;6186453;23;21082;-82
2022/03/21 04:18:20;;;;;;;20.07;16.33;;;5.80;71.00;;;;;;6185755;23;20982;-81
2022/03/21 04:20:50;;;;;;;26.30;15.70;;;5.80;71.10;;;;;;6184360;23;20443;-82
2022/03/21 04:23:17;;;;;;;22.93;16.17;;;5.80;70.80;;;;;;6185107;23;20705;-82
2022/03/21 04:25:45;;;;;;;20.57;15.57;;;5.70;70.70;;;;;;6185925;23;20471;-82
2022/03/21 04:28:14;;;;;;;19.50;14.93;;;5.70;71.00;;;;;;6186791;23;20781;-82
2022/03/21 04:30:42;;;;;;;17.47;15.23;;;5.60;71.70;;;;;;6186865;23;20768;-82
2022/03/21 04:33:10;;;;;;;18.53;14.90;;;5.60;72.30;;;;;;6185133;23;20405;-82
2022/03/21 04:35:37;;;;;;;20.20;16.30;;;5.60;72.20;;;;;;6186885;23;20441;-82
2022/03/21 04:38:04;;;;;;;18.20;13.73;;;5.60;72.30;;;;;;6186489;23;20537;-83
2022/03/21 04:40:31;;;;;;;22.10;16.57;;;5.70;72.40;;;;;;6186887;23;20412;-81
2022/03/21 04:42:59;;;;;;;18.40;14.30;;;5.70;72.00;;;;;;6187097;23;20495;-83
2022/03/21 04:45:25;;;;;;;19.70;16.40;;;5.60;71.90;;;;;;6186915;23;20419;-82
2022/03/21 04:47:52;;;;;;;22.67;16.77;;;5.60;71.90;;;;;;6186229;23;20421;-82
2022/03/21 04:50:19;;;;;;;21.50;16.13;;;5.70;71.30;;;;;;6190439;23;20444;-80
2022/03/21 04:52:46;;;;;;;19.17;16.00;;;5.80;70.10;;;;;;6199020;23;20414;-81
2022/03/21 04:55:15;;;;;;;22.03;15.40;;;5.80;69.30;;;;;;6189070;23;20403;-80
2022/03/21 04:57:42;;;;;;;25.10;16.30;;;5.80;68.40;;;;;;6195965;23;20429;-82
2022/03/21 05:00:13;;;;;;;22.57;15.63;;;5.80;68.30;;;;;;6204048;23;20423;-79
2022/03/21 05:02:41;;;;;;;15.60;13.90;;;5.90;67.40;;;;;;6203412;23;20399;-83
2022/03/21 05:05:09;;;;;;;17.27;14.73;;;5.90;66.50;;;;;;6188612;23;20410;-82
2022/03/21 05:07:40;;;;;;;18.00;13.80;;;6.00;66.30;;;;;;6187311;23;20432;-82
2022/03/21 05:10:08;;;;;;;22.13;15.37;;;6.00;65.80;;;;;;6191393;23;20455;-82
2022/03/21 05:12:35;;;;;;;17.10;13.30;;;6.00;65.70;;;;;;6193579;23;20739;-82
2022/03/21 05:15:03;;;;;;;16.37;13.10;;;6.00;65.50;;;;;;6187825;23;20405;-82
2022/03/21 05:17:32;;;;;;;29.43;16.13;;;6.00;66.00;;;;;;6184006;23;20954;-82
2022/03/21 05:19:59;;;;;;;18.70;15.00;;;5.90;66.50;;;;;;6187601;23;20409;-81
2022/03/21 05:22:26;;;;;;;18.77;14.87;;;5.90;67.20;;;;;;6204612;23;20435;-81
2022/03/21 05:35:56;;;;;;;20.43;16.60;;;5.80;68.40;;;;;;6187335;23;20375;-83
2022/03/21 05:38:24;;;;;;;26.07;17.80;;;5.90;68.70;;;;;;6188839;23;20450;-82
2022/03/21 05:40:52;;;;;;;22.93;16.97;;;5.80;69.10;;;;;;6200821;23;20435;-80
2022/03/21 05:43:19;;;;;;;23.07;18.10;;;5.80;68.90;;;;;;6192124;23;20401;-81
2022/03/21 05:45:47;;;;;;;21.80;16.73;;;5.80;68.60;;;;;;6189024;23;20419;-81
2022/03/21 05:50:59;;;;;;;25.50;16.40;;;5.80;68.60;;;;;;6186355;23;20428;-80
2022/03/21 05:53:26;;;;;;;20.40;15.47;;;5.80;69.00;;;;;;6187698;23;20458;-79
2022/03/21 05:55:55;;;;;;;21.03;14.80;;;5.80;68.60;;;;;;6188712;23;20418;-83
2022/03/21 05:58:22;;;;;;;23.20;15.80;;;5.80;68.20;;;;;;6184504;23;20412;-80
2022/03/21 06:00:49;;;;;;;20.20;15.67;;;5.90;68.10;;;;;;6188282;23;20407;-84
2022/03/21 06:03:17;;;;;;;22.27;15.40;;;6.00;67.70;;;;;;6193442;23;20409;-79
2022/03/21 06:05:44;;;;;;;18.83;14.27;;;6.00;66.80;;;;;;6196902;23;20405;-80
2022/03/21 06:08:11;;;;;;;20.17;15.50;;;6.10;66.50;;;;;;6186963;23;20433;-82
2022/03/21 06:10:38;;;;;;;23.10;15.73;;;6.00;66.10;;;;;;6185816;23;20441;-81
2022/03/21 06:13:06;;;;;;;23.10;14.83;;;6.10;66.60;;;;;;6186034;23;20411;-82
2022/03/21 06:15:33;;;;;;;27.33;16.33;;;6.10;66.10;;;;;;6181380;23;20478;-87
2022/03/21 06:18:01;;;;;;;21.03;15.13;;;6.10;65.70;;;;;;6185777;23;20401;-87
2022/03/21 06:20:30;;;;;;;23.87;15.43;;;6.20;64.90;;;;;;6186804;23;20390;-87
2022/03/21 06:22:58;;;;;;;16.43;14.63;;;6.30;64.80;;;;;;6185082;23;20405;-87
2022/03/21 06:25:25;;;;;;;21.50;14.90;;;6.30;64.00;;;;;;6188888;23;20781;-87
2022/03/21 06:27:52;;;;;;;18.87;15.17;;;6.40;64.00;;;;;;6199790;23;20417;-85
2022/03/21 06:30:19;;;;;;;19.80;15.00;;;6.40;63.50;;;;;;6210695;23;20435;-86
2022/03/21 06:32:46;;;;;;;18.93;15.37;;;6.40;62.90;;;;;;6203191;23;20412;-87
2022/03/21 06:35:13;;;;;;;17.33;15.17;;;6.40;62.50;;;;;;6192261;23;20433;-87
2022/03/21 06:37:42;;;;;;;19.07;13.53;;;6.50;62.10;;;;;;6160023;23;20921;-87
2022/03/21 06:40:10;;;;;;;19.20;14.80;;;6.60;61.30;;;;;;6188913;23;20759;-88
2022/03/21 06:42:37;;;;;;;17.30;14.90;;;6.70;61.50;;;;;;6212728;23;20404;-87
2022/03/21 06:45:04;;;;;;;21.13;16.03;;;6.70;60.90;;;;;;6206682;23;20430;-87
2022/03/21 06:47:31;;;;;;;22.23;15.80;;;6.80;61.60;;;;;;6188941;23;20426;-88
2022/03/21 06:49:58;;;;;;;24.00;17.47;;;7.00;61.60;;;;;;6200589;23;20439;-88
2022/03/21 06:52:25;;;;;;;19.93;16.17;;;7.10;62.40;;;;;;6186833;23;20416;-88
2022/03/21 06:54:53;;;;;;;25.83;17.57;;;7.20;62.30;;;;;;6199891;23;20448;-87
2022/03/21 06:57:21;;;;;;;25.47;15.77;;;7.30;61.80;;;;;;6192991;23;20402;-88
2022/03/21 06:59:47;;;;;;;22.07;17.00;;;7.40;61.80;;;;;;6189699;23;20410;-88
2022/03/21 07:02:15;;;;;;;18.33;15.30;;;7.50;61.60;;;;;;6187645;23;20908;-88
2022/03/21 07:04:42;;;;;;;21.30;15.50;;;7.50;61.00;;;;;;6194645;23;20429;-89
2022/03/21 07:07:09;;;;;;;21.60;16.80;;;7.70;60.90;;;;;;6187118;23;20920;-88
2022/03/21 07:09:36;;;;;;;25.70;17.10;;;7.90;60.00;;;;;;6186438;23;20484;-87
2022/03/21 07:12:04;;;;;;;22.43;16.77;;;7.90;59.40;;;;;;6187804;23;20804;-87
2022/03/21 07:14:31;;;;;;;22.70;18.20;;;7.90;59.10;;;;;;6187530;23;20982;-84
2022/03/21 07:16:58;;;;;;;21.77;17.30;;;8.00;59.30;;;;;;6202095;23;20393;-87
2022/03/21 07:19:25;;;;;;;21.60;16.93;;;8.00;58.80;;;;;;6196647;23;20842;-88
2022/03/21 07:21:51;;;;;;;21.80;17.20;;;8.10;58.60;;;;;;6186199;23;20406;-87
2022/03/21 07:24:18;;;;;;;24.77;16.67;;;8.20;58.20;;;;;;6187068;23;20414;-88
2022/03/21 07:26:45;;;;;;;25.73;16.80;;;8.20;57.90;;;;;;6187580;23;20775;-88
2022/03/21 07:29:13;;;;;;;24.37;17.60;;;8.30;57.50;;;;;;6187664;23;20402;-88
2022/03/21 07:31:39;;;;;;;19.67;16.73;;;8.40;57.30;;;;;;6188482;23;20967;-88
2022/03/21 07:34:07;;;;;;;24.53;15.13;;;8.50;57.50;;;;;;6187777;23;20402;-88
2022/03/21 07:36:34;;;;;;;18.80;15.70;;;8.60;56.80;;;;;;6197669;23;20429;-88
2022/03/21 07:39:01;;;;;;;17.63;15.63;;;8.70;56.60;;;;;;6213209;23;20497;-88
2022/03/21 07:41:28;;;;;;;22.03;14.27;;;9.00;56.10;;;;;;6211999;23;20445;-88
2022/03/21 07:43:57;;;;;;;23.93;15.67;;;9.50;55.10;;;;;;6208460;23;20420;-88
2022/03/21 07:49:11;;;;;;;19.33;15.47;;;9.90;53.60;;;;;;6211741;23;20429;-88
2022/03/21 07:51:38;;;;;;;19.73;16.03;;;10.20;52.90;;;;;;6194153;23;20513;-88
2022/03/21 07:54:05;;;;;;;17.40;15.63;;;10.40;52.30;;;;;;6201195;23;20402;-87
2022/03/21 07:56:32;;;;;;;19.40;15.60;;;10.70;51.70;;;;;;6201958;23;20448;-88
2022/03/21 07:58:59;;;;;;;20.27;16.87;;;10.80;52.10;;;;;;6188799;23;20406;-88
2022/03/21 08:01:30;;;;;;;19.23;15.27;;;11.20;51.60;;;;;;6204617;23;20443;-87
2022/03/21 08:04:00;;;;;;;19.80;16.33;;;10.80;52.10;;;;;;6190154;23;20864;-88
2022/03/21 08:06:27;;;;;;;25.07;17.50;;;10.80;51.60;;;;;;6190359;23;20513;-88
2022/03/21 08:08:55;;;;;;;18.13;15.53;;;10.80;51.60;;;;;;6202936;23;20409;-88
2022/03/21 08:11:22;;;;;;;24.80;16.20;;;11.00;51.20;;;;;;6199264;23;20445;-88
2022/03/21 08:13:50;;;;;;;19.53;16.63;;;11.20;50.40;;;;;;6195187;23;20410;-88
2022/03/21 08:16:22;;;;;;;23.40;16.83;;;11.50;50.20;;;;;;6197245;23;20442;-88
2022/03/21 08:18:52;;;;;;;20.67;16.50;;;11.70;48.90;;;;;;6190544;23;20429;-88
2022/03/21 08:21:20;;;;;;;21.90;17.00;;;12.10;48.60;;;;;;6191013;23;20414;-88
2022/03/21 08:23:49;;;;;;;18.10;16.17;;;12.20;47.70;;;;;;6189488;23;20395;-88
2022/03/21 08:26:17;;;;;;;18.27;16.37;;;12.50;47.80;;;;;;6211058;23;20410;-88
2022/03/21 08:28:45;;;;;;;20.93;15.17;;;12.60;47.40;;;;;;6211926;23;20405;-88
2022/03/21 08:31:13;;;;;;;20.13;16.57;;;12.90;47.10;;;;;;6213302;23;20464;-88
2022/03/21 08:33:40;;;;;;;18.90;17.00;;;13.30;46.20;;;;;;6213487;23;20406;-88
2022/03/21 08:36:17;;;;;;;20.40;16.70;;;13.70;45.60;;;;;;6212610;23;20424;-88
2022/03/21 08:38:43;;;;;;;18.00;16.10;;;14.00;44.90;;;;;;6207430;23;20733;-88
2022/03/21 08:41:11;;;;;;;21.50;17.30;;;14.10;44.50;;;;;;6213431;23;20393;-88
2022/03/21 08:43:38;;;;;;;21.23;17.07;;;14.30;44.30;;;;;;6212506;23;20407;-87
2022/03/21 08:46:05;;;;;;;19.67;16.67;;;14.70;43.90;;;;;;6212389;23;20452;-86
2022/03/21 08:51:19;;;;;;;19.63;17.67;;;15.80;42.70;;;;;;6192099;23;20429;-87
2022/03/21 08:53:46;;;;;;;19.20;17.03;;;16.00;42.90;;;;;;6188731;23;20413;-87
2022/03/21 08:56:13;;;;;;;18.70;16.90;;;16.50;41.60;;;;;;6188277;23;20421;-88
2022/03/21 08:58:39;;;;;;;18.63;16.80;;;16.90;41.10;;;;;;6192335;23;20402;-87
2022/03/21 09:01:06;;;;;;;18.90;17.00;;;17.50;40.20;;;;;;6194538;23;20415;-89
2022/03/21 09:03:33;;;;;;;21.03;16.03;;;18.10;39.20;;;;;;6189963;23;20402;-89
2022/03/21 09:05:59;;;;;;;19.80;17.70;;;18.60;38.40;;;;;;6189397;23;20744;-89
2022/03/21 09:08:27;;;;;;;18.83;16.83;;;18.90;38.00;;;;;;6190535;23;20741;-88
2022/03/21 09:10:55;;;;;;;20.97;18.37;;;19.00;37.90;;;;;;6189177;23;20465;-89
2022/03/21 09:13:23;;;;;;;21.73;18.27;;;19.10;37.80;;;;;;6200460;23;20394;-88
2022/03/21 09:15:50;;;;;;;21.10;19.03;;;19.50;37.10;;;;;;6213270;23;20426;-88
2022/03/21 09:18:16;;;;;;;19.40;17.40;;;20.20;37.10;;;;;;6206942;23;20414;-87
2022/03/21 09:20:43;;;;;;;18.00;16.33;;;20.00;36.00;;;;;;6187301;23;20405;-88
2022/03/21 09:23:10;;;;;;;18.73;17.03;;;19.90;36.80;;;;;;6186675;23;20424;-88
2022/03/21 09:25:38;;;;;;;20.57;18.40;;;20.40;36.00;;;;;;6186659;23;20423;-87
2022/03/21 09:28:05;;;;;;;20.10;18.20;;;20.50;35.80;;;;;;6186678;23;20506;-89
2022/03/21 09:30:33;;;;;;;19.43;17.53;;;19.80;35.70;;;;;;6190015;23;20440;-86
2022/03/21 09:32:59;;;;;;;20.70;18.47;;;20.00;36.10;;;;;;6198617;23;20396;-86
2022/03/21 09:35:26;;;;;;;19.47;17.67;;;21.00;36.00;;;;;;6195517;23;20433;-86
2022/03/21 09:37:53;;;;;;;22.47;20.27;;;22.20;35.00;;;;;;6186830;23;20752;-86
2022/03/21 09:40:20;;;;;;;20.60;18.53;;;22.70;33.50;;;;;;6186639;23;20915;-85
2022/03/21 09:42:48;;;;;;;21.80;19.37;;;22.70;33.00;;;;;;6186216;23;20916;-88
2022/03/21 09:45:16;;;;;;;20.40;18.47;;;22.30;33.20;;;;;;6185465;23;20964;-88
2022/03/21 09:50:33;;;;;;;19.03;17.33;;;23.30;33.00;;;;;;6185796;23;20422;-88
2022/03/21 09:53:02;;;;;;;20.20;18.20;;;24.40;32.30;;;;;;6186834;23;21070;-89
2022/03/21 09:55:28;;;;;;;21.60;19.37;;;24.30;31.60;;;;;;6186477;23;20431;-89
2022/03/21 09:57:56;;;;;;;22.33;20.30;;;24.30;31.20;;;;;;6199984;23;20404;-88
2022/03/21 10:00:25;;;;;;;21.77;19.60;;;23.60;31.90;;;;;;6209518;23;20395;-89
2022/03/21 10:02:52;;;;;;;21.20;19.13;;;24.40;31.60;;;;;;6186259;23;20907;-88
2022/03/21 10:05:36;;;;;;;21.70;19.63;;;24.60;31.00;;;;;;6186108;23;20953;-88
2022/03/21 10:08:20;;;;;;;21.43;19.57;;;25.00;30.50;;;;;;6185890;23;20468;-89
2022/03/21 10:10:57;;;;;;;22.63;20.33;;;25.60;30.10;;;;;;6187337;23;20908;-89
2022/03/21 10:13:27;;;;;;;22.40;20.30;;;26.20;29.30;;;;;;6185663;23;20714;-88
2022/03/21 10:16:08;;;;;;;22.50;20.50;;;25.00;28.90;;;;;;6186467;23;20433;-88
2022/03/21 10:18:35;;;;;;;24.00;21.80;;;24.70;29.70;;;;;;6185216;23;20911;-89
2022/03/21 10:21:13;;;;;;;22.57;20.40;;;24.50;30.00;;;;;;6186662;23;20409;-89
2022/03/21 10:23:40;;;;;;;22.03;19.97;;;23.80;29.90;;;;;;6205868;23;20469;-88
2022/03/21 10:26:26;;;;;;;22.33;20.03;;;23.60;30.60;;;;;;6210402;23;20428;-87
2022/03/21 10:28:56;;;;;;;22.67;20.43;;;23.70;30.80;;;;;;6211268;23;20389;-88
2022/03/21 10:31:38;;;;;;;22.17;20.00;;;24.30;30.20;;;;;;6191066;23;20746;-88
2022/03/21 10:34:06;;;;;;;21.87;19.80;;;25.00;30.10;;;;;;6188311;23;20393;-89
2022/03/21 10:36:34;;;;;;;23.03;21.13;;;25.70;29.40;;;;;;6195015;23;20437;-88
2022/03/21 10:39:08;;;;;;;24.17;21.77;;;26.80;28.80;;;;;;6196060;23;20401;-88
2022/03/21 10:41:36;;;;;;;22.63;20.77;;;27.40;28.20;;;;;;6209679;23;20390;-89
2022/03/21 10:44:05;;;;;;;21.67;19.87;;;28.50;27.40;;;;;;6206718;23;20406;-88
2022/03/21 10:46:31;;;;;;;20.60;18.70;;;27.10;28.10;;;;;;6187489;23;20430;-88
2022/03/21 10:49:03;;;;;;;21.90;20.00;;;27.10;28.40;;;;;;6186354;23;20406;-89
2022/03/21 10:51:48;;;;;;;22.33;20.43;;;26.90;28.10;;;;;;6185647;23;20484;-88
2022/03/21 10:54:40;;;;;;;20.63;18.80;;;25.70;29.00;;;;;;6186168;23;20389;-88
2022/03/21 10:57:09;;;;;;;21.10;19.20;;;26.20;29.20;;;;;;6185872;23;20734;-88
2022/03/21 10:59:37;;;;;;;20.40;18.70;;;26.70;28.90;;;;;;6192432;23;20481;-88
2022/03/21 11:02:12;;;;;;;22.47;20.13;;;27.00;28.40;;;;;;6203833;23;20444;-88
2022/03/21 11:04:41;;;;;;;22.13;20.03;;;26.30;28.80;;;;;;6186598;23;20429;-89
2022/03/21 11:07:11;;;;;;;22.37;20.37;;;26.50;28.60;;;;;;6185393;23;20394;-88
2022/03/21 11:09:39;;;;;;;22.70;20.53;;;25.50;28.60;;;;;;6186315;23;20391;-88
2022/03/21 11:12:07;;;;;;;20.57;18.50;;;25.00;29.40;;;;;;6203554;23;20405;-88
2022/03/21 11:14:40;;;;;;;24.33;21.90;;;23.60;29.80;;;;;;6207140;23;20441;-87
2022/03/21 11:17:08;;;;;;;22.03;20.03;;;22.80;30.80;;;;;;6200797;23;20388;-88
2022/03/21 11:19:35;;;;;;;22.53;20.43;;;23.30;30.90;;;;;;6199964;23;20414;-88
2022/03/21 11:22:03;;;;;;;22.10;20.20;;;24.00;30.40;;;;;;6200472;23;20451;-88
2022/03/21 11:24:30;;;;;;;21.77;19.80;;;23.70;30.30;;;;;;6187475;23;20403;-88
2022/03/21 11:27:13;;;;;;;22.60;20.50;;;23.50;30.80;;;;;;6184354;23;20897;-87
2022/03/21 11:29:53;;;;;;;26.37;23.77;;;23.20;30.60;;;;;;6188315;23;20387;-88
2022/03/21 11:32:33;;;;;;;21.00;19.07;;;23.60;30.20;;;;;;6186954;23;20420;-89
2022/03/21 11:35:07;;;;;;;21.80;19.80;;;23.10;30.30;;;;;;6186910;23;20773;-88
2022/03/21 11:37:34;;;;;;;21.47;19.50;;;22.30;31.50;;;;;;6197236;23;20375;-88
2022/03/21 11:40:30;;;;;;;21.40;19.40;;;22.70;31.50;;;;;;6210465;23;20454;-87
2022/03/21 11:43:29;;;;;;;21.13;19.13;;;22.50;31.20;;;;;;6210326;23;20461;-88
2022/03/21 11:45:57;;;;;;;21.73;19.47;;;22.70;31.40;;;;;;6205491;23;20430;-87
2022/03/21 11:48:38;;;;;;;21.00;19.20;;;23.70;30.30;;;;;;6194039;23;20410;-88
2022/03/21 11:51:24;;;;;;;20.43;18.40;;;24.90;29.60;;;;;;6193234;23;20464;-88
2022/03/21 11:53:53;;;;;;;20.50;18.60;;;26.60;28.70;;;;;;6189200;23;20397;-90
2022/03/21 11:56:57;;;;;;;20.10;17.97;;;27.50;27.70;;;;;;6191647;23;20437;-88
2022/03/21 11:59:48;;;;;;;19.20;17.43;;;27.40;27.60;;;;;;6195690;23;20385;-88
2022/03/21 12:02:52;;;;;;;19.50;17.60;;;26.90;27.50;;;;;;6196473;23;20446;-88
2022/03/21 12:05:39;;;;;;;20.10;18.40;;;27.50;27.80;;;;;;6208125;23;20434;-88
2022/03/21 12:08:45;;;;;;;20.30;17.37;;;26.50;27.10;;;;;;6204794;23;20394;-89
2022/03/21 12:12:01;;;;;;;21.07;18.90;;;26.20;27.80;;;;;;6210902;23;20386;-88
2022/03/21 12:14:36;;;;;;;19.40;17.77;;;26.60;27.60;;;;;;6208872;23;20397;-89
2022/03/21 12:17:30;;;;;;;19.70;18.00;;;27.60;27.50;;;;;;6188714;23;20449;-85
2022/03/21 12:20:24;;;;;;;18.33;16.57;;;28.20;26.10;;;;;;6196197;23;20444;-84
2022/03/21 12:23:00;;;;;;;18.40;16.43;;;28.80;25.80;;;;;;6165290;23;20445;-85
2022/03/21 12:25:44;;;;;;;17.40;15.60;;;28.30;25.80;;;;;;6196396;23;20463;-85
2022/03/21 12:31:23;;;;;;;17.67;16.10;;;26.10;27.10;;;;;;6198132;23;20404;-84
2022/03/21 12:33:51;;;;;;;17.10;15.60;;;26.70;27.20;;;;;;6197126;23;20890;-83
2022/03/21 12:36:31;;;;;;;19.70;17.10;;;26.70;27.20;;;;;;6197815;23;20421;-82
2022/03/21 12:38:59;;;;;;;17.83;16.10;;;26.40;27.30;;;;;;6198613;23;20458;-83
2022/03/21 12:41:34;;;;;;;17.73;16.13;;;26.80;27.70;;;;;;6198667;23;20456;-83
2022/03/21 12:44:01;;;;;;;17.03;15.53;;;27.00;26.80;;;;;;6204840;23;20389;-82
2022/03/21 12:46:28;;;;;;;18.20;16.30;;;27.70;26.80;;;;;;6202381;23;20459;-83
2022/03/21 12:48:58;;;;;;;18.30;16.60;;;27.30;26.60;;;;;;6206087;23;20448;-84
2022/03/21 12:51:34;;;;;;;17.17;15.67;;;27.70;26.90;;;;;;6200049;23;20714;-84
2022/03/21 12:54:04;;;;;;;20.23;18.23;;;28.60;26.20;;;;;;6195239;23;20386;-83
2022/03/21 12:56:31;;;;;;;20.20;17.67;;;28.00;26.30;;;;;;6197278;23;20483;-84
2022/03/21 12:59:04;;;;;;;19.10;17.30;;;27.40;26.40;;;;;;6198101;23;20505;-84
2022/03/21 13:01:32;;;;;;;18.53;16.70;;;27.60;26.90;;;;;;6197997;23;20427;-84
2022/03/21 13:12:11;;;;;;;16.00;13.40;;;27.40;25.50;;;;;;6197567;23;20402;-83
2022/03/21 13:14:39;;;;;;;15.03;12.93;;;26.60;25.50;;;;;;6195453;23;20867;-83
2022/03/21 13:17:05;;;;;;;16.53;12.87;;;25.00;27.10;;;;;;6196972;23;20429;-82
2022/03/21 13:19:33;;;;;;;17.07;13.20;;;24.90;27.50;;;;;;6193364;23;20398;-84
2022/03/21 13:22:04;;;;;;;14.93;13.37;;;24.60;27.80;;;;;;6190819;23;20441;-83
2022/03/21 13:24:40;;;;;;;15.77;14.27;;;24.10;28.20;;;;;;6195992;23;20454;-82